Time;durP1;ratioP1;P1;durP2;ratioP2;P2;SDS_P1;SDS_P2;PMS_P1;PMS_P2;Temp;Humidity;BMP_temperature;BMP_pressure;BME280_temperature;BME280_humidity;BME280_pressure;Samples;Min_cycle;Max_cycle;Signal;HPM_P1;HPM_P2
2023/06/17 00:01:11;;;;;;;20.27;16.33;;;;;;;14.30;100.00;100640.56;5014233;28;20076;-82
2023/06/17 00:03:38;;;;;;;19.98;14.40;;;;;;;14.29;100.00;100637.03;4988299;28;20050;-81
2023/06/17 00:06:05;;;;;;;19.42;14.68;;;;;;;14.29;100.00;100630.81;4976086;28;20128;-81
2023/06/17 00:08:32;;;;;;;17.80;12.98;;;;;;;14.29;100.00;100626.41;5013191;28;20136;-81
2023/06/17 00:10:59;;;;;;;16.92;13.77;;;;;;;14.29;100.00;100629.06;5001823;28;20042;-81
2023/06/17 00:13:26;;;;;;;20.52;14.30;;;;;;;14.30;100.00;100629.94;5007878;28;20041;-81
2023/06/17 00:15:56;;;;;;;20.95;14.55;;;;;;;14.33;100.00;100629.81;4989842;28;20053;-81
2023/06/17 00:18:24;;;;;;;21.73;15.85;;;;;;;14.32;100.00;100628.06;4983408;28;20042;-81
2023/06/17 00:20:52;;;;;;;20.88;15.70;;;;;;;14.31;100.00;100618.38;5018998;28;20121;-81
2023/06/17 00:23:20;;;;;;;18.80;14.95;;;;;;;14.28;100.00;100623.78;4992062;28;20757;-81
2023/06/17 00:25:48;;;;;;;20.70;15.88;;;;;;;14.31;100.00;100624.56;4998784;28;20041;-81
2023/06/17 00:28:15;;;;;;;22.30;15.02;;;;;;;14.27;100.00;100622.91;5020474;28;20111;-81
2023/06/17 00:30:46;;;;;;;18.02;14.50;;;;;;;14.26;100.00;100620.31;4993940;28;20077;-81
2023/06/17 00:33:14;;;;;;;20.20;15.52;;;;;;;14.27;100.00;100620.25;4997964;28;20088;-81
2023/06/17 00:35:41;;;;;;;20.30;15.60;;;;;;;14.25;100.00;100619.44;5007282;28;20045;-81
2023/06/17 00:38:08;;;;;;;20.40;14.85;;;;;;;14.29;100.00;100625.50;5000316;28;20066;-81
2023/06/17 00:40:35;;;;;;;19.58;15.00;;;;;;;14.25;100.00;100618.59;4997844;28;20057;-81
2023/06/17 00:43:02;;;;;;;20.83;16.05;;;;;;;14.25;100.00;100621.25;5021059;28;20037;-81
2023/06/17 00:45:28;;;;;;;20.67;15.43;;;;;;;14.25;100.00;100616.78;4989737;28;20550;-81
2023/06/17 00:47:59;;;;;;;21.25;15.85;;;;;;;14.26;100.00;100623.84;4996640;28;20409;-81
2023/06/17 00:50:28;;;;;;;22.25;15.43;;;;;;;14.27;100.00;100622.03;4998016;28;20057;-81
2023/06/17 00:52:55;;;;;;;20.27;14.60;;;;;;;14.28;100.00;100618.47;5001684;28;20735;-81
2023/06/17 00:55:22;;;;;;;23.05;16.45;;;;;;;14.28;100.00;100621.13;4982417;28;20042;-81
2023/06/17 00:57:49;;;;;;;22.70;16.48;;;;;;;14.24;100.00;100616.84;5004645;28;20156;-81
2023/06/17 01:00:16;;;;;;;25.38;16.48;;;;;;;14.28;100.00;100618.47;4991741;28;20041;-81
2023/06/17 01:02:44;;;;;;;24.40;16.98;;;;;;;14.24;100.00;100614.19;4995240;28;20495;-81
2023/06/17 01:05:14;;;;;;;23.13;15.68;;;;;;;14.19;100.00;100609.03;5004918;28;20037;-81
2023/06/17 01:07:50;;;;;;;22.35;15.60;;;;;;;14.22;100.00;100610.72;5002182;28;20037;-81
2023/06/17 01:10:35;;;;;;;21.95;15.93;;;;;;;14.23;100.00;100612.47;4997130;28;20034;-81
2023/06/17 01:13:03;;;;;;;21.63;16.75;;;;;;;14.19;100.00;100608.16;5009956;28;20038;-81
2023/06/17 01:15:33;;;;;;;20.85;15.48;;;;;;;14.17;100.00;100605.56;4989712;28;20049;-81
2023/06/17 01:18:03;;;;;;;23.50;17.20;;;;;;;14.15;100.00;100607.44;4977776;28;20042;-81
2023/06/17 01:20:32;;;;;;;22.73;16.60;;;;;;;14.13;100.00;100609.28;4988803;28;20132;-81
2023/06/17 01:23:00;;;;;;;23.13;16.58;;;;;;;14.12;100.00;100601.34;5012221;28;20046;-82
2023/06/17 01:25:31;;;;;;;25.63;17.40;;;;;;;14.07;100.00;100597.06;5010393;28;20034;-81
2023/06/17 01:28:00;;;;;;;23.40;17.02;;;;;;;14.13;100.00;100596.00;4987095;28;20103;-81
2023/06/17 01:30:28;;;;;;;22.77;16.23;;;;;;;14.09;100.00;100594.34;4985493;28;20464;-81
2023/06/17 01:33:00;;;;;;;24.50;17.60;;;;;;;14.09;100.00;100597.00;4972516;28;20038;-82
2023/06/17 01:35:34;;;;;;;25.75;17.27;;;;;;;14.04;100.00;100590.97;4978044;28;20049;-82
2023/06/17 01:38:23;;;;;;;25.40;16.52;;;;;;;14.01;100.00;100594.63;4999709;28;20046;-81
2023/06/17 01:40:57;;;;;;;21.02;15.68;;;;;;;14.03;100.00;100595.44;5004950;28;20042;-81
2023/06/17 01:43:25;;;;;;;25.63;17.92;;;;;;;14.11;100.00;100594.28;4986604;28;20038;-81
2023/06/17 01:45:53;;;;;;;22.50;16.85;;;;;;;14.09;100.00;100592.56;4971578;28;20115;-81
2023/06/17 01:48:19;;;;;;;22.02;16.95;;;;;;;14.04;100.00;100586.56;4995176;28;20092;-84
2023/06/17 01:50:46;;;;;;;22.67;17.35;;;;;;;14.04;100.00;100593.63;5001443;28;20038;-83
2023/06/17 01:53:13;;;;;;;25.85;17.42;;;;;;;14.00;100.00;100592.03;4976993;28;20059;-82
2023/06/17 01:55:39;;;;;;;23.27;16.67;;;;;;;13.97;100.00;100592.16;4975729;28;20048;-84
2023/06/17 01:58:06;;;;;;;20.75;15.93;;;;;;;13.95;100.00;100592.19;4986454;28;20434;-83
2023/06/17 02:00:33;;;;;;;22.27;16.42;;;;;;;13.96;100.00;100591.28;4999813;28;20049;-81
2023/06/17 02:02:59;;;;;;;24.25;17.67;;;;;;;14.05;100.00;100584.78;4977606;28;20046;-83
2023/06/17 02:05:26;;;;;;;22.83;16.90;;;;;;;13.96;100.00;100593.94;5005606;28;20092;-83
2023/06/17 02:07:56;;;;;;;23.52;17.33;;;;;;;13.91;100.00;100582.59;5003308;28;20046;-82
2023/06/17 02:10:23;;;;;;;22.73;16.23;;;;;;;13.89;100.00;100584.44;4990976;28;20157;-82
2023/06/17 02:12:50;;;;;;;24.02;17.15;;;;;;;13.94;100.00;100592.22;4978110;28;20066;-82
2023/06/17 02:15:16;;;;;;;21.95;16.45;;;;;;;13.94;100.00;100592.22;5017521;28;20048;-82
2023/06/17 02:17:44;;;;;;;20.20;16.58;;;;;;;13.88;100.00;100593.34;4975473;28;20049;-82
2023/06/17 02:20:11;;;;;;;22.15;16.08;;;;;;;13.88;100.00;100596.00;4979498;28;20073;-81
2023/06/17 02:22:38;;;;;;;24.63;17.60;;;;;;;13.86;100.00;100595.16;4978655;28;20080;-82
2023/06/17 02:25:05;;;;;;;21.60;17.00;;;;;;;13.85;100.00;100600.53;5000169;28;20033;-81
2023/06/17 02:27:32;;;;;;;20.50;16.05;;;;;;;13.81;100.00;100599.78;4973253;28;20132;-81
2023/06/17 02:29:58;;;;;;;22.00;16.30;;;;;;;13.82;100.00;100601.50;4979013;28;20046;-82
2023/06/17 02:32:27;;;;;;;22.20;16.00;;;;;;;13.82;100.00;100596.19;4995757;28;20046;-82
2023/06/17 02:34:57;;;;;;;21.33;16.90;;;;;;;13.86;100.00;100594.28;5014838;28;20108;-82
2023/06/17 02:37:23;;;;;;;23.02;16.50;;;;;;;13.87;100.00;100594.22;4991425;28;20115;-82
2023/06/17 02:39:50;;;;;;;24.27;17.48;;;;;;;13.83;100.00;100597.06;4998304;28;20046;-82
2023/06/17 02:42:17;;;;;;;21.45;16.73;;;;;;;13.84;100.00;100596.16;4989611;28;20038;-83
2023/06/17 02:44:43;;;;;;;20.90;16.38;;;;;;;13.84;100.00;100590.84;4971593;28;20034;-82
2023/06/17 02:47:10;;;;;;;20.23;16.73;;;;;;;13.88;100.00;100592.47;4993078;28;20041;-82
2023/06/17 02:49:37;;;;;;;25.95;18.73;;;;;;;13.89;100.00;100589.75;5000600;28;20577;-82
2023/06/17 02:52:05;;;;;;;23.00;17.42;;;;;;;13.88;100.00;100589.81;4981727;28;20041;-82
2023/06/17 02:54:31;;;;;;;20.92;16.42;;;;;;;13.87;100.00;100596.03;4984753;28;20037;-82
2023/06/17 02:56:58;;;;;;;24.80;18.05;;;;;;;13.87;100.00;100588.91;4975458;28;20057;-81
2023/06/17 02:59:25;;;;;;;21.88;16.10;;;;;;;13.85;100.00;100592.56;5011095;28;20097;-82
2023/06/17 03:01:52;;;;;;;20.92;17.08;;;;;;;13.85;100.00;100598.75;5003463;28;20034;-83
2023/06/17 03:04:20;;;;;;;19.58;15.77;;;;;;;13.82;100.00;100598.00;5009712;28;20092;-83
2023/06/17 03:06:50;;;;;;;20.50;15.68;;;;;;;13.80;100.00;100593.59;4999816;28;20104;-83
2023/06/17 03:09:18;;;;;;;21.38;16.83;;;;;;;13.83;100.00;100597.94;5000135;28;20474;-83
2023/06/17 03:11:45;;;;;;;23.58;18.13;;;;;;;13.88;100.00;100597.78;5000536;28;20044;-83
2023/06/17 03:14:12;;;;;;;19.27;15.68;;;;;;;13.84;100.00;100593.50;4980091;28;20076;-82
2023/06/17 03:16:40;;;;;;;22.48;17.88;;;;;;;13.87;100.00;100596.88;4986162;28;20422;-82
2023/06/17 03:19:07;;;;;;;25.85;17.70;;;;;;;13.85;100.00;100601.41;4982398;28;20076;-83
2023/06/17 03:21:39;;;;;;;21.55;15.90;;;;;;;13.84;100.00;100602.31;4985576;28;20085;-83
2023/06/17 03:24:06;;;;;;;21.00;15.80;;;;;;;13.88;100.00;100593.34;4990157;28;20037;-83
2023/06/17 03:26:33;;;;;;;23.45;17.80;;;;;;;13.91;100.00;100598.53;5001541;28;20060;-84
2023/06/17 03:29:01;;;;;;;20.77;16.17;;;;;;;13.87;100.00;100596.88;4996577;28;20184;-82
2023/06/17 03:31:28;;;;;;;22.98;17.05;;;;;;;13.91;100.00;100598.53;4976515;28;20128;-83
2023/06/17 03:33:54;;;;;;;21.48;17.08;;;;;;;13.93;100.00;100599.34;4975534;28;20137;-83
2023/06/17 03:36:30;;;;;;;22.10;17.55;;;;;;;13.89;100.00;100597.72;4997512;28;20038;-83
2023/06/17 03:38:57;;;;;;;23.13;16.77;;;;;;;13.98;100.00;100596.53;4988344;28;20049;-83
2023/06/17 03:41:24;;;;;;;22.67;17.13;;;;;;;13.94;100.00;100598.41;4995412;28;20042;-83
2023/06/17 03:43:52;;;;;;;20.65;16.20;;;;;;;13.92;100.00;100597.59;4993904;28;20069;-83
2023/06/17 03:46:18;;;;;;;23.48;18.60;;;;;;;13.92;100.00;100597.59;4999373;28;20038;-83
2023/06/17 03:48:46;;;;;;;24.55;18.67;;;;;;;13.98;100.00;100594.75;4977730;28;20046;-83
2023/06/17 03:51:12;;;;;;;25.48;18.20;;;;;;;13.96;100.00;100590.41;5001146;28;20056;-83
2023/06/17 03:53:40;;;;;;;23.63;18.85;;;;;;;13.96;100.00;100596.59;4996767;28;20046;-84
2023/06/17 03:56:07;;;;;;;27.85;19.95;;;;;;;14.01;100.00;100593.75;4999351;28;20599;-83
2023/06/17 03:58:34;;;;;;;22.38;17.33;;;;;;;14.01;100.00;100596.41;4998264;28;20072;-83
2023/06/17 04:01:00;;;;;;;26.52;17.65;;;;;;;14.03;100.00;100595.44;4988960;28;20091;-83
2023/06/17 04:03:27;;;;;;;25.67;19.35;;;;;;;14.15;100.00;100598.59;4987376;28;20042;-82
2023/06/17 04:05:54;;;;;;;22.52;16.50;;;;;;;14.12;100.00;100601.34;5006449;28;20092;-83
2023/06/17 04:08:22;;;;;;;26.45;19.52;;;;;;;14.18;100.00;100606.44;4989339;28;20590;-83
2023/06/17 04:10:49;;;;;;;25.15;20.08;;;;;;;14.25;100.00;100607.94;5003321;28;20060;-83
2023/06/17 04:13:16;;;;;;;22.83;17.40;;;;;;;14.23;100.00;100609.81;4982887;28;20033;-84
2023/06/17 04:15:45;;;;;;;22.75;16.35;;;;;;;14.23;100.00;100609.81;5026033;28;20125;-83
2023/06/17 04:18:12;;;;;;;21.98;17.85;;;;;;;14.21;100.00;100612.53;4992291;28;20088;-83
2023/06/17 04:20:40;;;;;;;24.42;17.27;;;;;;;14.24;100.00;100616.84;5006478;28;20137;-83
2023/06/17 04:23:07;;;;;;;23.35;17.42;;;;;;;14.25;100.00;100606.16;5003411;28;20556;-83
2023/06/17 04:25:36;;;;;;;20.65;15.77;;;;;;;14.28;100.00;100610.50;5008394;28;20488;-84
2023/06/17 04:28:07;;;;;;;18.95;16.55;;;;;;;14.30;100.00;100609.53;4992222;28;20511;-84
2023/06/17 04:30:34;;;;;;;19.02;15.95;;;;;;;14.31;100.00;100613.06;4998928;28;20447;-83
2023/06/17 04:33:00;;;;;;;19.88;16.38;;;;;;;14.34;100.00;100607.63;4991009;28;20156;-83
2023/06/17 04:35:27;;;;;;;20.60;16.38;;;;;;;14.39;100.00;100604.81;4979417;28;20385;-84
2023/06/17 04:37:54;;;;;;;20.30;15.68;;;;;;;14.43;100.00;100617.91;5014865;28;20052;-84
2023/06/17 04:40:22;;;;;;;19.52;16.55;;;;;;;14.44;100.00;100614.31;5026639;28;20674;-83
2023/06/17 04:42:49;;;;;;;21.05;16.38;;;;;;;14.47;100.00;100613.38;5015630;28;20506;-83
2023/06/17 04:45:17;;;;;;;17.30;14.38;;;;;;;14.46;100.00;100620.50;5033101;28;20072;-83
2023/06/17 04:47:44;;;;;;;17.50;14.13;;;;;;;14.45;100.00;100620.50;5011317;28;20112;-83
2023/06/17 04:50:12;;;;;;;19.60;15.43;;;;;;;14.51;100.00;100615.00;5000305;28;20037;-84
2023/06/17 04:52:50;;;;;;;18.27;14.75;;;;;;;14.48;100.00;100626.63;5016668;28;20097;-83
2023/06/17 04:55:21;;;;;;;16.05;13.95;;;;;;;14.52;100.00;100624.69;4996949;28;20096;-83
2023/06/17 04:57:47;;;;;;;17.73;14.70;;;;;;;14.53;100.00;100623.78;4980104;28;20042;-83
2023/06/17 05:00:14;;;;;;;17.60;14.75;;;;;;;14.55;100.00;100625.47;4996786;28;20087;-83
2023/06/17 05:02:47;;;;;;;18.23;13.17;;;;;;;14.59;100.00;100631.53;5007834;28;20057;-82
2023/06/17 05:05:14;;;;;;;17.98;15.10;;;;;;;14.62;100.00;100634.06;5017524;28;20103;-83
2023/06/17 05:07:41;;;;;;;16.10;13.48;;;;;;;14.57;100.00;100634.25;4991808;28;20040;-84
2023/06/17 05:10:08;;;;;;;19.02;15.75;;;;;;;14.61;100.00;100632.34;4987550;28;20043;-84
2023/06/17 05:12:34;;;;;;;15.63;12.98;;;;;;;14.63;100.00;100630.50;5014690;28;20037;-83
2023/06/17 05:15:01;;;;;;;16.08;13.63;;;;;;;14.58;100.00;100627.13;4981423;28;20052;-84
2023/06/17 05:17:28;;;;;;;17.73;14.38;;;;;;;14.58;100.00;100635.97;4993838;28;20056;-83
2023/06/17 05:19:54;;;;;;;16.48;14.10;;;;;;;14.63;100.00;100631.38;5008808;28;20037;-83
2023/06/17 05:22:21;;;;;;;20.55;16.73;;;;;;;14.63;100.00;100631.38;4998056;28;20038;-83
2023/06/17 05:24:48;;;;;;;17.58;13.85;;;;;;;14.63;100.00;100628.72;4981358;28;20434;-83
2023/06/17 05:27:15;;;;;;;15.52;13.93;;;;;;;14.61;100.00;100632.34;4997958;28;20432;-83
2023/06/17 05:29:41;;;;;;;21.75;16.48;;;;;;;14.52;100.00;100627.34;4985363;28;20049;-83
2023/06/17 05:32:09;;;;;;;19.63;14.52;;;;;;;14.60;100.00;100628.81;5002859;28;20568;-83
2023/06/17 05:34:40;;;;;;;16.90;14.55;;;;;;;14.63;100.00;100627.84;5003378;28;20048;-83
2023/06/17 05:37:07;;;;;;;18.65;15.40;;;;;;;14.68;100.00;100633.84;4993225;28;20038;-83
2023/06/17 05:39:34;;;;;;;20.30;15.38;;;;;;;14.61;100.00;100627.00;5002999;28;20792;-84
2023/06/17 05:42:01;;;;;;;20.30;14.75;;;;;;;14.71;100.00;100643.47;4990818;28;20043;-84
2023/06/17 05:44:28;;;;;;;22.08;16.83;;;;;;;14.75;100.00;100637.13;4984119;28;20061;-87
2023/06/17 05:46:55;;;;;;;17.83;13.63;;;;;;;14.71;100.00;100635.50;4959083;28;20566;-85
2023/06/17 05:49:22;;;;;;;18.73;15.68;;;;;;;14.72;100.00;100639.94;5009870;28;20045;-85
2023/06/17 05:51:49;;;;;;;19.23;15.20;;;;;;;14.60;100.00;100636.78;4993991;28;20052;-84
2023/06/17 05:54:16;;;;;;;18.02;14.93;;;;;;;14.66;100.00;100638.34;4981925;28;20045;-84
2023/06/17 05:56:42;;;;;;;22.08;16.60;;;;;;;14.73;100.00;100647.84;5002176;28;20487;-83
2023/06/17 05:59:09;;;;;;;18.73;15.25;;;;;;;14.74;100.00;100646.03;4990153;28;20065;-84
2023/06/17 06:01:36;;;;;;;22.85;16.40;;;;;;;14.68;100.00;100644.47;4990053;28;20096;-84
2023/06/17 06:04:03;;;;;;;19.08;15.10;;;;;;;14.83;100.00;100643.03;5001334;28;20111;-84
2023/06/17 06:06:30;;;;;;;19.08;14.45;;;;;;;14.78;100.00;100645.84;4994009;28;20066;-84
2023/06/17 06:09:05;;;;;;;18.95;13.85;;;;;;;14.80;100.00;100643.16;4998526;28;20045;-84
2023/06/17 06:11:32;;;;;;;19.13;15.02;;;;;;;14.89;100.00;100643.69;4998188;28;20087;-83
2023/06/17 06:13:59;;;;;;;20.13;15.00;;;;;;;14.94;100.00;100640.81;4981396;28;20034;-84
2023/06/17 06:16:27;;;;;;;24.15;17.38;;;;;;;14.96;100.00;100638.09;4985193;28;20048;-84
2023/06/17 06:18:54;;;;;;;19.17;15.27;;;;;;;15.04;100.00;100642.19;4996114;28;20054;-83
2023/06/17 06:21:23;;;;;;;22.05;16.55;;;;;;;15.13;100.00;100647.19;4994430;28;20097;-84
2023/06/17 06:23:50;;;;;;;21.20;15.45;;;;;;;15.13;100.00;100647.19;4994489;28;20264;-83
2023/06/17 06:26:21;;;;;;;21.17;16.60;;;;;;;15.07;100.00;100641.22;5005744;28;20095;-83
2023/06/17 06:28:48;;;;;;;21.35;15.82;;;;;;;15.09;100.00;100642.03;4974391;28;20068;-84
2023/06/17 06:31:15;;;;;;;21.45;17.02;;;;;;;15.23;100.00;100644.16;4997964;28;20038;-83
2023/06/17 06:33:42;;;;;;;18.00;14.80;;;;;;;15.18;100.00;100639.84;4979435;28;20395;-84
2023/06/17 06:36:09;;;;;;;18.15;13.02;;;;;;;15.23;100.00;100646.81;4976599;28;20128;-84
2023/06/17 06:38:37;;;;;;;21.05;15.30;;;;;;;15.30;100.00;100651.84;4985603;28;20491;-84
2023/06/17 06:41:04;;;;;;;21.17;16.63;;;;;;;15.41;100.00;100646.06;5012328;28;20104;-87
2023/06/17 06:43:31;;;;;;;21.83;16.15;;;;;;;15.46;100.00;100646.72;4973688;28;20049;-85
2023/06/17 06:45:58;;;;;;;23.73;17.13;;;;;;;15.55;100.00;100649.00;4982246;28;20057;-84
2023/06/17 06:48:25;;;;;;;22.23;16.42;;;;;;;15.66;100.00;100649.47;4988060;28;20046;-84
2023/06/17 06:50:53;;;;;;;18.15;15.20;;;;;;;15.66;100.00;100648.63;4989404;28;20129;-85
2023/06/17 06:53:21;;;;;;;21.33;15.32;;;;;;;15.76;100.00;100661.47;4995880;28;20169;-84
2023/06/17 06:55:48;;;;;;;23.20;16.95;;;;;;;15.83;100.00;100666.56;5009073;28;20030;-85
2023/06/17 06:58:15;;;;;;;20.42;14.80;;;;;;;15.90;100.00;100666.25;4980462;28;20038;-84
2023/06/17 07:00:42;;;;;;;21.13;14.45;;;;;;;16.03;100.00;100669.22;5012072;28;20121;-85
2023/06/17 07:03:10;;;;;;;19.60;14.15;;;;;;;16.05;100.00;100665.56;4983443;28;20097;-84
2023/06/17 07:05:37;;;;;;;18.40;14.65;;;;;;;16.09;100.00;100665.44;4988776;28;20037;-85
2023/06/17 07:08:04;;;;;;;18.42;14.57;;;;;;;16.12;100.00;100660.84;4983587;28;20052;-85
2023/06/17 07:10:33;;;;;;;17.15;14.00;;;;;;;16.25;100.00;100656.72;4996689;28;20977;-84
2023/06/17 07:13:00;;;;;;;15.07;12.25;;;;;;;16.37;100.00;100657.09;5004376;28;20041;-84
2023/06/17 07:15:27;;;;;;;19.92;15.35;;;;;;;16.52;100.00;100665.28;4989765;28;20044;-85
2023/06/17 07:17:54;;;;;;;17.02;14.60;;;;;;;16.57;100.00;100662.44;4991208;28;20042;-85
2023/06/17 07:20:22;;;;;;;18.23;15.07;;;;;;;16.65;100.00;100662.06;5012818;28;20037;-85
2023/06/17 07:22:53;;;;;;;16.23;12.48;;;;;;;16.52;100.00;100662.63;5013540;28;20048;-84
2023/06/17 07:25:22;;;;;;;18.15;15.88;;;;;;;16.59;100.00;100668.56;4996678;28;20053;-84
2023/06/17 07:27:48;;;;;;;15.25;12.82;;;;;;;16.47;100.00;100667.28;5003263;28;20042;-84
2023/06/17 07:30:15;;;;;;;14.50;12.73;;;;;;;16.51;100.00;100660.03;4993255;28;20129;-84
2023/06/17 07:32:42;;;;;;;18.00;13.82;;;;;;;16.62;100.00;100655.06;4992794;28;20514;-84
2023/06/17 07:35:09;;;;;;;18.15;15.18;;;;;;;16.66;100.00;100656.66;4980687;28;20037;-85
2023/06/17 07:37:36;;;;;;;19.33;15.02;;;;;;;16.72;100.00;100651.06;5012901;28;20132;-83
2023/06/17 07:40:05;;;;;;;17.92;14.43;;;;;;;17.07;100.00;100665.47;4984941;28;20158;-85
2023/06/17 07:42:32;;;;;;;17.17;12.90;;;;;;;17.18;100.00;100656.94;4991761;28;20041;-83
2023/06/17 07:44:59;;;;;;;13.57;11.95;;;;;;;17.30;100.00;100660.81;4991940;28;20042;-84
2023/06/17 07:47:26;;;;;;;14.27;12.77;;;;;;;17.52;100.00;100658.84;5008657;28;20128;-83
2023/06/17 07:49:54;;;;;;;13.90;12.40;;;;;;;17.60;100.00;100661.13;4990225;28;20045;-85
2023/06/17 07:52:21;;;;;;;14.80;12.45;;;;;;;17.58;100.00;100661.22;5001099;28;20045;-85
2023/06/17 07:54:49;;;;;;;11.68;10.43;;;;;;;17.63;100.00;100653.81;5018199;28;20033;-86
2023/06/17 07:57:16;;;;;;;14.77;12.63;;;;;;;17.74;100.00;100650.66;4984432;28;20125;-84
2023/06/17 07:59:45;;;;;;;12.15;10.05;;;;;;;17.83;100.00;100654.69;4991663;28;20594;-84
2023/06/17 08:02:12;;;;;;;10.60;9.50;;;;;;;17.88;100.00;100649.94;4989779;28;20046;-84
2023/06/17 08:04:39;;;;;;;12.27;10.05;;;;;;;17.82;100.00;100652.91;5000760;28;20041;-84
2023/06/17 08:07:06;;;;;;;13.52;10.40;;;;;;;17.96;100.00;100653.09;4992258;28;20109;-84
2023/06/17 08:09:33;;;;;;;11.15;9.95;;;;;;;17.96;100.00;100648.59;5000347;28;20037;-83
2023/06/17 08:12:00;;;;;;;12.50;9.70;;;;;;;18.15;100.00;100656.53;5017010;28;20052;-84
2023/06/17 08:14:30;;;;;;;11.40;10.20;;;;;;;18.27;100.00;100647.91;5018319;28;20105;-83
2023/06/17 08:16:57;;;;;;;12.18;9.98;;;;;;;18.46;100.00;100650.44;4976962;28;20077;-81
2023/06/17 08:19:23;;;;;;;11.23;9.52;;;;;;;18.61;100.00;100661.28;5015163;28;20067;-83
2023/06/17 08:21:50;;;;;;;11.18;9.93;;;;;;;18.70;100.00;100656.34;4998557;28;20041;-82
2023/06/17 08:24:24;;;;;;;10.93;9.35;;;;;;;18.75;100.00;100659.63;4987853;28;20061;-83
2023/06/17 08:26:52;;;;;;;10.90;9.27;;;;;;;18.83;100.00;100661.88;5004002;28;20037;-84
2023/06/17 08:29:19;;;;;;;9.25;8.40;;;;;;;18.81;100.00;100663.78;4978478;28;20051;-83
2023/06/17 08:31:48;;;;;;;10.15;9.05;;;;;;;18.81;100.00;100664.63;4980497;28;20465;-84
2023/06/17 08:34:15;;;;;;;9.35;8.05;;;;;;;18.73;100.00;100666.88;4992659;28;20480;-82
2023/06/17 08:36:45;;;;;;;9.75;8.40;;;;;;;18.71;100.00;100657.19;4999794;28;20105;-83
2023/06/17 08:39:12;;;;;;;8.65;7.82;;;;;;;18.71;100.00;100671.44;4977426;28;20643;-85
2023/06/17 08:41:41;;;;;;;8.25;7.32;;;;;;;18.74;100.00;100673.06;5002980;28;20074;-83
2023/06/17 08:44:13;;;;;;;8.43;7.55;;;;;;;18.75;100.00;100677.47;4999086;28;20033;-83
2023/06/17 08:46:42;;;;;;;7.53;6.82;;;;;;;18.87;100.00;100673.28;5005360;28;20037;-83
2023/06/17 08:49:11;;;;;;;6.35;5.75;;;;;;;19.14;100.00;100682.47;4991712;28;20583;-83
2023/06/17 08:51:38;;;;;;;8.32;6.57;;;;;;;19.22;100.00;100674.00;4980918;28;20045;-84
2023/06/17 08:54:06;;;;;;;6.90;6.18;;;;;;;19.08;88.91;100681.00;5005061;28;20323;-80
2023/06/17 08:56:36;;;;;;;8.95;6.25;;;;;;;18.96;89.27;100676.31;4989014;28;20124;-81
2023/06/17 08:59:03;;;;;;;6.85;6.07;;;;;;;19.00;92.17;100680.59;4998390;28;20044;-84
2023/06/17 09:01:31;;;;;;;6.63;5.63;;;;;;;19.14;88.95;100677.13;5000159;28;20431;-81
2023/06/17 09:03:59;;;;;;;9.10;5.82;;;;;;;19.11;90.14;100670.13;5015995;28;20037;-84
2023/06/17 09:06:28;;;;;;;6.82;5.80;;;;;;;19.16;94.58;100674.34;4993839;28;20042;-84
2023/06/17 09:08:56;;;;;;;8.25;6.25;;;;;;;19.32;91.53;100676.06;4979836;28;20507;-85
2023/06/17 09:11:28;;;;;;;9.75;7.00;;;;;;;19.34;92.41;100671.53;4996808;28;20042;-85
2023/06/17 09:13:59;;;;;;;6.72;6.07;;;;;;;19.30;93.91;100675.31;4977634;28;20439;-83
2023/06/17 09:16:28;;;;;;;6.78;6.10;;;;;;;19.21;93.55;100666.94;4983178;28;20038;-83
2023/06/17 09:18:59;;;;;;;7.20;6.00;;;;;;;19.09;95.97;100672.03;4983175;28;20595;-83
2023/06/17 09:21:34;;;;;;;6.95;6.28;;;;;;;19.10;99.96;100670.22;4979603;28;20125;-84
2023/06/17 09:24:06;;;;;;;7.38;6.45;;;;;;;19.02;98.21;100676.00;4965358;28;20562;-84
2023/06/17 09:26:44;;;;;;;6.97;6.28;;;;;;;18.94;98.71;100670.19;5011575;28;20093;-84
2023/06/17 09:29:12;;;;;;;7.70;6.90;;;;;;;18.80;99.86;100673.63;4995282;28;20141;-84
2023/06/17 09:31:53;;;;;;;7.78;5.78;;;;;;;18.88;99.29;100672.34;4970912;28;20137;-83
2023/06/17 09:34:21;;;;;;;8.18;7.38;;;;;;;18.92;98.25;100685.50;4985856;28;20040;-83
2023/06/17 09:36:55;;;;;;;8.57;7.68;;;;;;;19.01;97.71;100682.31;4994168;28;20042;-83
2023/06/17 09:39:30;;;;;;;7.70;6.97;;;;;;;19.14;93.34;100677.13;4982082;28;20553;-83
2023/06/17 09:42:06;;;;;;;6.88;6.28;;;;;;;19.08;97.12;100672.97;4999451;28;20066;-84
2023/06/17 09:44:33;;;;;;;8.32;6.85;;;;;;;19.11;95.70;100670.13;4980478;28;20570;-85
2023/06/17 09:47:07;;;;;;;7.55;6.75;;;;;;;19.28;95.45;100671.84;4982187;28;20049;-84
2023/06/17 09:49:37;;;;;;;8.73;7.22;;;;;;;19.35;97.40;100669.72;5007748;28;20670;-85
2023/06/17 09:52:09;;;;;;;8.68;6.30;;;;;;;19.43;95.19;100659.41;4977650;28;20085;-84
2023/06/17 09:54:44;;;;;;;7.95;6.82;;;;;;;19.63;91.88;100667.19;4969681;28;20045;-85
2023/06/17 09:57:14;;;;;;;7.90;7.10;;;;;;;19.72;93.51;100668.47;4987656;28;20033;-84
2023/06/17 09:59:40;;;;;;;8.93;7.65;;;;;;;19.84;90.06;100670.47;4993740;28;20069;-85
2023/06/17 10:02:07;;;;;;;8.45;7.55;;;;;;;20.05;91.53;100662.94;4973759;28;20683;-86
2023/06/17 10:04:34;;;;;;;9.32;8.13;;;;;;;20.41;86.06;100659.84;4999408;28;20037;-87
2023/06/17 10:07:05;;;;;;;8.40;7.55;;;;;;;20.56;82.67;100655.38;4984892;28;20133;-85
2023/06/17 10:09:36;;;;;;;8.80;7.88;;;;;;;21.08;87.69;100658.31;4982131;28;20185;-85
2023/06/17 10:12:03;;;;;;;9.88;7.60;;;;;;;21.39;82.83;100659.06;4995418;28;20037;-85
2023/06/17 10:14:32;;;;;;;9.77;7.65;;;;;;;21.43;79.30;100662.41;4993097;28;20037;-84
2023/06/17 10:17:01;;;;;;;7.13;6.25;;;;;;;21.23;84.62;100653.78;4982123;28;20046;-86
2023/06/17 10:19:33;;;;;;;7.07;6.38;;;;;;;20.95;80.76;100660.09;5008851;28;20042;-84
2023/06/17 10:22:05;;;;;;;7.72;6.93;;;;;;;20.69;84.04;100664.41;5002382;28;20045;-85
2023/06/17 10:24:32;;;;;;;7.82;7.13;;;;;;;20.25;86.57;100662.59;4985767;28;20040;-84
2023/06/17 10:27:04;;;;;;;8.52;7.60;;;;;;;19.87;90.67;100675.63;4983066;28;20042;-85
2023/06/17 10:29:34;;;;;;;10.00;7.07;;;;;;;19.66;92.93;100669.69;4979108;28;20044;-86
2023/06/17 10:32:22;;;;;;;7.53;6.82;;;;;;;19.40;99.00;100673.84;4971298;28;20771;-84
2023/06/17 10:35:04;;;;;;;9.05;8.15;;;;;;;19.06;100.00;100677.53;4990077;28;20046;-84
2023/06/17 10:37:40;;;;;;;8.75;7.65;;;;;;;18.79;100.00;100687.94;5008842;28;20048;-85
2023/06/17 10:40:27;;;;;;;13.15;9.52;;;;;;;18.75;100.00;100678.38;5008011;28;20088;-84
2023/06/17 10:43:01;;;;;;;11.85;9.32;;;;;;;18.35;100.00;100682.25;5001085;28;20034;-84
2023/06/17 10:45:47;;;;;;;10.02;8.73;;;;;;;18.11;100.00;100675.50;4999728;28;20564;-84
2023/06/17 10:48:16;;;;;;;12.93;9.35;;;;;;;18.01;100.00;100672.44;4983958;28;20129;-85
2023/06/17 10:50:46;;;;;;;11.23;10.18;;;;;;;17.88;100.00;100674.00;4972789;28;20143;-88
2023/06/17 10:53:16;;;;;;;9.45;8.45;;;;;;;17.85;100.00;100666.16;4985123;28;20128;-87
2023/06/17 10:55:43;;;;;;;15.68;10.02;;;;;;;17.90;100.00;100666.75;4983869;28;20066;-86
2023/06/17 10:58:10;;;;;;;11.75;9.30;;;;;;;17.64;100.00;100666.22;4976702;28;20042;-86
2023/06/17 11:00:38;;;;;;;10.82;9.73;;;;;;;17.71;100.00;100662.34;5003081;28;20038;-85
2023/06/17 11:03:08;;;;;;;12.23;10.13;;;;;;;17.68;100.00;100659.81;4995716;28;20068;-85
2023/06/17 11:05:36;;;;;;;10.68;9.57;;;;;;;17.71;100.00;100664.16;4985405;28;20049;-87
2023/06/17 11:08:05;;;;;;;11.85;10.65;;;;;;;17.41;100.00;100659.38;4981078;28;20042;-86
2023/06/17 11:10:32;;;;;;;12.70;10.38;;;;;;;17.52;100.00;100671.31;4992352;28;20042;-87
2023/06/17 11:12:59;;;;;;;10.57;9.52;;;;;;;17.60;100.00;100666.47;4999384;28;20053;-86